Time;durP1;ratioP1;P1;durP2;ratioP2;P2;SDS_P1;SDS_P2;PMS_P1;PMS_P2;Temp;Humidity;BMP_temperature;BMP_pressure;BME280_temperature;BME280_humidity;BME280_pressure;Samples;Min_cycle;Max_cycle;Signal;HPM_P1;HPM_P2
2022/01/07 00:00:20;;;;;;;9.63;7.90;;;2.90;99.90;;;;;;5032103;28;20191;-51
2022/01/07 00:02:48;;;;;;;8.47;7.23;;;2.80;99.90;;;;;;5032233;28;20171;-52
2022/01/07 00:05:14;;;;;;;8.17;6.97;;;2.80;99.90;;;;;;5031511;28;20203;-51
2022/01/07 00:07:41;;;;;;;10.87;7.93;;;2.80;99.90;;;;;;5032238;28;20167;-50
2022/01/07 00:10:09;;;;;;;9.37;7.50;;;2.70;99.90;;;;;;5027420;28;20191;-53
2022/01/07 00:12:34;;;;;;;10.17;7.30;;;2.80;99.90;;;;;;5033618;28;20180;-49
2022/01/07 00:15:00;;;;;;;9.73;7.50;;;2.90;99.90;;;;;;5029148;28;20277;-50
2022/01/07 00:17:26;;;;;;;9.07;7.30;;;2.80;99.90;;;;;;5015300;28;20188;-48
2022/01/07 00:19:51;;;;;;;11.10;7.93;;;2.80;99.90;;;;;;5011886;28;20677;-50
2022/01/07 00:22:17;;;;;;;10.40;7.70;;;2.90;99.90;;;;;;5011019;28;20184;-50
2022/01/07 00:24:43;;;;;;;8.93;7.70;;;2.90;99.90;;;;;;5011481;28;20248;-48
2022/01/07 00:27:08;;;;;;;10.23;7.27;;;2.90;99.90;;;;;;5011913;28;20183;-48
2022/01/07 00:29:34;;;;;;;10.10;8.00;;;2.80;99.90;;;;;;5012127;28;20191;-49
2022/01/07 00:31:59;;;;;;;10.67;8.37;;;2.90;99.90;;;;;;5011866;28;20204;-50
2022/01/07 00:34:25;;;;;;;9.63;8.03;;;2.90;99.90;;;;;;5011564;28;20196;-48
2022/01/07 00:36:50;;;;;;;11.27;8.10;;;2.90;99.90;;;;;;5011806;28;20701;-50
2022/01/07 00:39:16;;;;;;;9.57;7.30;;;2.90;99.90;;;;;;5011688;28;20180;-49
2022/01/07 00:41:42;;;;;;;10.47;8.17;;;2.80;99.90;;;;;;5012060;28;20549;-47
2022/01/07 00:44:07;;;;;;;10.60;7.43;;;2.90;99.90;;;;;;5011327;28;20680;-47
2022/01/07 00:46:33;;;;;;;9.53;7.70;;;2.90;99.90;;;;;;5011978;28;20604;-48
2022/01/07 00:48:58;;;;;;;9.30;7.77;;;2.80;99.90;;;;;;5011679;28;20180;-51
2022/01/07 00:51:24;;;;;;;10.00;7.97;;;2.80;99.90;;;;;;5011864;28;20797;-48
2022/01/07 00:53:49;;;;;;;9.60;7.93;;;2.70;99.90;;;;;;5011349;28;20215;-48
2022/01/07 00:56:15;;;;;;;8.97;7.03;;;2.70;99.90;;;;;;5011587;28;20175;-49
2022/01/07 00:58:40;;;;;;;8.57;7.67;;;2.70;99.90;;;;;;5011737;28;20177;-50
2022/01/07 01:01:06;;;;;;;9.77;8.00;;;2.60;99.90;;;;;;5011398;28;20215;-48
2022/01/07 01:03:32;;;;;;;13.27;8.57;;;2.60;99.90;;;;;;5011712;28;20181;-48
2022/01/07 01:05:58;;;;;;;10.73;8.10;;;2.60;99.90;;;;;;5011234;28;20180;-50
2022/01/07 01:08:25;;;;;;;9.30;7.67;;;2.60;99.90;;;;;;5011459;28;20658;-50
2022/01/07 01:10:52;;;;;;;10.50;8.53;;;2.60;99.90;;;;;;5011320;28;20177;-47
2022/01/07 01:13:18;;;;;;;10.40;8.30;;;2.50;99.90;;;;;;5011767;28;20177;-48
2022/01/07 01:15:43;;;;;;;12.33;8.27;;;2.50;99.90;;;;;;5011114;28;20678;-51
2022/01/07 01:18:09;;;;;;;12.03;8.23;;;2.60;99.90;;;;;;5011623;28;20177;-49
2022/01/07 01:20:35;;;;;;;10.00;7.67;;;2.60;99.90;;;;;;5011468;28;20208;-48
2022/01/07 01:23:00;;;;;;;9.77;7.67;;;2.60;99.90;;;;;;4993651;28;20191;-48
2022/01/07 01:25:26;;;;;;;11.23;8.30;;;2.40;99.90;;;;;;4994840;28;20200;-48
2022/01/07 01:27:52;;;;;;;10.90;8.40;;;2.30;99.90;;;;;;5015150;28;20180;-48
2022/01/07 01:30:18;;;;;;;10.20;7.93;;;2.10;99.90;;;;;;5015319;28;20176;-49
2022/01/07 01:32:46;;;;;;;9.80;7.67;;;2.00;99.90;;;;;;5015324;28;20549;-49
2022/01/07 01:35:13;;;;;;;9.83;7.93;;;1.90;99.90;;;;;;5014848;28;20255;-47
2022/01/07 01:37:38;;;;;;;10.67;8.47;;;1.70;99.90;;;;;;5014912;28;20188;-48
2022/01/07 01:40:05;;;;;;;9.63;8.23;;;1.70;99.90;;;;;;5015091;28;20428;-48
2022/01/07 01:42:31;;;;;;;12.77;9.57;;;1.80;99.90;;;;;;5015120;28;20594;-50
2022/01/07 01:44:57;;;;;;;12.50;8.83;;;2.00;99.90;;;;;;5014446;28;20606;-47
2022/01/07 01:47:23;;;;;;;12.40;8.33;;;2.00;99.90;;;;;;5015078;28;20211;-51
2022/01/07 01:49:48;;;;;;;11.00;8.90;;;1.90;99.90;;;;;;5014757;28;20184;-50
2022/01/07 01:52:14;;;;;;;10.33;8.43;;;2.00;99.90;;;;;;5014813;28;20658;-48
2022/01/07 01:54:43;;;;;;;11.73;8.77;;;2.10;99.90;;;;;;5014270;28;20606;-47
2022/01/07 01:57:09;;;;;;;11.20;8.60;;;2.10;99.90;;;;;;5014911;28;20180;-48
2022/01/07 01:59:35;;;;;;;11.37;9.00;;;2.20;99.90;;;;;;5014733;28;20700;-48
2022/01/07 02:02:01;;;;;;;9.63;8.07;;;2.20;99.90;;;;;;5014609;28;20177;-49
2022/01/07 02:04:27;;;;;;;11.73;9.37;;;2.40;99.90;;;;;;5014285;28;20193;-49
2022/01/07 02:06:53;;;;;;;11.73;9.03;;;2.50;99.90;;;;;;5014252;28;20171;-50
2022/01/07 02:09:24;;;;;;;11.33;8.63;;;2.60;99.90;;;;;;5014733;28;20533;-48
2022/01/07 02:11:49;;;;;;;11.90;8.77;;;2.60;99.90;;;;;;5014485;28;20169;-51
2022/01/07 02:14:15;;;;;;;13.13;9.53;;;2.60;99.90;;;;;;5014132;28;20769;-48
2022/01/07 02:16:40;;;;;;;13.80;9.83;;;2.70;99.90;;;;;;5014350;28;20226;-48
2022/01/07 02:19:06;;;;;;;12.77;9.33;;;2.70;99.90;;;;;;5014341;28;20165;-48
2022/01/07 02:21:37;;;;;;;13.40;9.37;;;2.70;99.90;;;;;;5014212;28;20235;-48
2022/01/07 02:24:03;;;;;;;12.53;10.33;;;2.70;99.90;;;;;;5014011;28;20197;-49
2022/01/07 02:26:33;;;;;;;13.13;9.67;;;2.70;99.90;;;;;;5014327;28;20173;-48
2022/01/07 02:28:59;;;;;;;14.23;9.67;;;2.70;99.90;;;;;;5013982;28;20167;-50
2022/01/07 02:31:24;;;;;;;14.03;9.80;;;2.70;99.90;;;;;;5014327;28;20180;-53
2022/01/07 02:33:50;;;;;;;12.30;9.37;;;2.80;99.90;;;;;;5013676;28;20192;-49
2022/01/07 02:36:15;;;;;;;12.67;9.17;;;2.80;99.90;;;;;;5013536;28;20176;-48
2022/01/07 02:38:41;;;;;;;13.20;9.57;;;2.80;99.90;;;;;;5013215;28;20239;-50
2022/01/07 02:41:06;;;;;;;13.27;9.70;;;2.80;99.90;;;;;;5013972;28;20254;-49
2022/01/07 02:43:32;;;;;;;13.83;9.97;;;2.80;99.90;;;;;;5013909;28;20264;-53
2022/01/07 02:45:58;;;;;;;14.10;9.60;;;2.70;99.90;;;;;;5013470;28;20187;-49
2022/01/07 02:48:24;;;;;;;15.10;10.90;;;2.80;99.90;;;;;;5013694;28;20226;-48
2022/01/07 02:50:50;;;;;;;13.33;9.80;;;2.70;99.90;;;;;;5013549;28;20184;-49
2022/01/07 02:53:15;;;;;;;11.53;9.10;;;2.70;99.90;;;;;;5013825;28;20211;-50
2022/01/07 02:55:41;;;;;;;13.07;9.70;;;2.70;99.90;;;;;;5013078;28;20223;-53
2022/01/07 02:58:08;;;;;;;13.57;9.67;;;2.70;99.90;;;;;;5013939;28;20184;-51
2022/01/07 03:00:34;;;;;;;15.30;10.33;;;2.80;99.90;;;;;;5013647;28;20665;-54
2022/01/07 03:03:03;;;;;;;15.40;10.17;;;2.80;99.90;;;;;;5013345;28;20187;-53
2022/01/07 03:05:28;;;;;;;13.00;9.63;;;2.80;99.90;;;;;;5013194;28;20674;-53
2022/01/07 03:07:55;;;;;;;13.53;10.23;;;2.80;99.90;;;;;;5026602;28;20234;-55
2022/01/07 03:10:27;;;;;;;12.07;9.63;;;2.70;99.90;;;;;;5033223;28;20230;-51
2022/01/07 03:12:53;;;;;;;14.93;10.13;;;2.60;99.90;;;;;;5032962;28;20180;-52
2022/01/07 03:15:19;;;;;;;13.70;10.70;;;2.60;99.90;;;;;;5032901;28;20191;-53
2022/01/07 03:17:44;;;;;;;13.80;9.77;;;2.60;99.90;;;;;;5033309;28;20191;-51
2022/01/07 03:20:16;;;;;;;12.57;9.30;;;2.60;99.90;;;;;;5032992;28;20204;-51
2022/01/07 03:22:43;;;;;;;10.10;8.23;;;2.50;99.90;;;;;;5032949;28;20152;-52
2022/01/07 03:25:09;;;;;;;11.37;9.20;;;2.50;99.90;;;;;;5032649;28;20192;-49
2022/01/07 03:27:35;;;;;;;11.70;8.40;;;2.60;99.90;;;;;;5032920;28;20186;-50
2022/01/07 03:30:02;;;;;;;13.20;9.50;;;2.50;99.90;;;;;;5014896;28;20184;-50
2022/01/07 03:32:28;;;;;;;12.43;9.77;;;2.50;99.90;;;;;;5032897;28;20182;-54
2022/01/07 03:34:54;;;;;;;11.60;9.20;;;2.50;99.90;;;;;;5032084;28;20208;-51
2022/01/07 03:37:20;;;;;;;13.40;9.57;;;2.50;99.90;;;;;;5032750;28;20237;-49
2022/01/07 03:39:45;;;;;;;12.90;9.77;;;2.50;99.90;;;;;;5032463;28;20286;-51
2022/01/07 03:42:11;;;;;;;12.93;9.63;;;2.50;99.90;;;;;;5032709;28;20195;-52
2022/01/07 03:44:37;;;;;;;13.43;9.80;;;2.50;99.90;;;;;;5032190;28;20200;-48
2022/01/07 03:47:03;;;;;;;13.03;9.47;;;2.40;99.90;;;;;;5032303;28;20637;-54
2022/01/07 03:49:28;;;;;;;13.93;8.33;;;2.50;99.90;;;;;;5032680;28;20179;-53
2022/01/07 03:51:54;;;;;;;13.27;9.73;;;2.40;99.90;;;;;;5032215;28;20187;-51
2022/01/07 03:54:20;;;;;;;14.60;9.63;;;2.40;99.90;;;;;;5032057;28;20227;-52
2022/01/07 03:56:45;;;;;;;14.27;10.63;;;2.50;99.90;;;;;;5032380;28;20255;-53
2022/01/07 03:59:11;;;;;;;13.87;10.20;;;2.50;99.90;;;;;;5014514;28;20234;-52
2022/01/07 04:01:37;;;;;;;15.60;10.43;;;2.50;99.90;;;;;;5014355;28;20286;-50
2022/01/07 04:04:02;;;;;;;15.27;10.03;;;2.50;99.90;;;;;;5014238;28;20285;-53
2022/01/07 04:06:28;;;;;;;13.73;9.60;;;2.50;99.90;;;;;;5032073;28;20175;-54
2022/01/07 04:08:53;;;;;;;12.50;8.97;;;2.50;99.90;;;;;;5031912;28;20183;-54
2022/01/07 04:11:19;;;;;;;12.73;9.10;;;2.50;99.90;;;;;;5032198;28;20224;-51
2022/01/07 04:13:44;;;;;;;14.17;9.60;;;2.50;99.90;;;;;;5031860;28;20730;-49
2022/01/07 04:16:11;;;;;;;12.87;9.70;;;2.50;99.90;;;;;;5031858;28;20179;-49
2022/01/07 04:18:37;;;;;;;16.60;11.70;;;2.50;99.90;;;;;;5031842;28;20176;-49
2022/01/07 04:21:03;;;;;;;13.50;9.53;;;2.50;99.90;;;;;;5031792;28;20691;-48
2022/01/07 04:23:28;;;;;;;14.80;9.57;;;2.50;99.90;;;;;;5031938;28;20172;-49
2022/01/07 04:25:54;;;;;;;10.90;8.27;;;2.50;99.90;;;;;;5031495;28;20183;-48
2022/01/07 04:28:20;;;;;;;10.60;8.17;;;2.50;99.90;;;;;;5031769;28;20219;-49
2022/01/07 04:30:46;;;;;;;9.53;7.90;;;2.40;99.90;;;;;;5031582;28;20176;-49
2022/01/07 04:33:15;;;;;;;11.37;7.67;;;2.30;99.90;;;;;;5031926;28;20527;-53
2022/01/07 04:35:42;;;;;;;11.77;7.50;;;2.20;99.90;;;;;;5031200;28;20202;-48
2022/01/07 04:38:09;;;;;;;10.47;7.80;;;2.20;99.90;;;;;;5031796;28;20552;-48
2022/01/07 04:40:35;;;;;;;9.70;8.00;;;2.20;99.90;;;;;;5031479;28;21036;-49
2022/01/07 04:43:02;;;;;;;10.80;7.70;;;2.20;99.90;;;;;;5031542;28;20172;-48
2022/01/07 04:45:28;;;;;;;9.87;7.70;;;2.20;99.90;;;;;;5031431;28;20438;-51
2022/01/07 04:47:54;;;;;;;10.57;7.57;;;2.10;99.90;;;;;;5031444;28;20415;-53
2022/01/07 04:50:21;;;;;;;10.13;7.63;;;2.10;99.90;;;;;;5031516;28;20211;-47
2022/01/07 04:52:47;;;;;;;11.30;8.20;;;2.00;99.90;;;;;;5031374;28;20199;-51
2022/01/07 04:55:18;;;;;;;9.60;7.27;;;2.00;99.90;;;;;;5031152;28;20458;-49
2022/01/07 04:57:44;;;;;;;12.13;7.17;;;2.00;99.90;;;;;;5031237;28;20230;-48
2022/01/07 05:00:11;;;;;;;9.53;6.80;;;1.90;99.90;;;;;;5032346;28;20481;-48
2022/01/07 05:02:36;;;;;;;10.57;6.70;;;1.90;99.90;;;;;;5035591;28;20443;-51
2022/01/07 05:05:02;;;;;;;11.07;7.37;;;1.90;99.90;;;;;;5035097;28;20473;-50
2022/01/07 05:07:28;;;;;;;9.13;6.90;;;1.90;99.90;;;;;;5035594;28;20206;-50
2022/01/07 05:09:53;;;;;;;9.60;6.87;;;1.80;99.90;;;;;;5035372;28;20453;-48
2022/01/07 05:12:19;;;;;;;9.30;6.73;;;1.70;99.90;;;;;;5017922;28;20175;-49
2022/01/07 05:14:44;;;;;;;7.83;6.10;;;1.70;99.90;;;;;;5034806;28;20200;-51
2022/01/07 05:17:10;;;;;;;10.30;6.50;;;1.70;99.90;;;;;;5035478;28;20544;-49
2022/01/07 05:19:36;;;;;;;8.67;6.57;;;1.60;99.90;;;;;;5035130;28;20176;-48
2022/01/07 05:22:01;;;;;;;9.03;6.90;;;1.50;99.90;;;;;;5035296;28;20167;-48
2022/01/07 05:24:27;;;;;;;10.17;7.47;;;1.50;99.90;;;;;;5034754;28;20218;-50
2022/01/07 05:26:52;;;;;;;12.90;9.27;;;1.60;99.90;;;;;;5034930;28;20545;-50
2022/01/07 05:29:18;;;;;;;9.40;7.80;;;1.50;99.90;;;;;;5035220;28;20641;-49
2022/01/07 05:31:44;;;;;;;10.03;8.10;;;1.50;99.90;;;;;;5035000;28;20180;-48
2022/01/07 05:34:09;;;;;;;14.57;12.20;;;1.50;99.90;;;;;;5034771;28;20199;-48
2022/01/07 05:36:37;;;;;;;8.80;6.70;;;1.50;99.90;;;;;;5034803;28;20229;-50
2022/01/07 05:39:03;;;;;;;8.53;6.73;;;1.50;99.90;;;;;;5034914;28;20597;-50
2022/01/07 05:41:28;;;;;;;8.70;7.00;;;1.50;99.90;;;;;;5034590;28;20564;-48
2022/01/07 05:43:54;;;;;;;8.20;6.90;;;1.60;99.90;;;;;;5034770;28;20192;-53
2022/01/07 05:46:20;;;;;;;9.40;6.30;;;1.60;99.90;;;;;;5034790;28;20684;-49
2022/01/07 05:48:46;;;;;;;10.07;7.30;;;1.40;99.90;;;;;;5034527;28;20168;-48
2022/01/07 05:51:13;;;;;;;9.53;7.30;;;1.40;99.90;;;;;;5034779;28;20187;-50
2022/01/07 05:53:39;;;;;;;8.10;6.40;;;1.50;99.90;;;;;;5034509;28;20835;-47
2022/01/07 05:56:06;;;;;;;8.53;6.53;;;1.50;99.90;;;;;;5034390;28;20822;-50
2022/01/07 05:58:32;;;;;;;10.93;7.37;;;1.50;99.90;;;;;;5034410;28;20438;-51
2022/01/07 06:00:58;;;;;;;11.13;7.97;;;1.50;99.90;;;;;;5034476;28;20214;-48
2022/01/07 06:03:23;;;;;;;12.33;9.23;;;1.50;99.90;;;;;;5034320;28;20251;-48
2022/01/07 06:05:49;;;;;;;15.23;10.17;;;1.50;99.90;;;;;;5034122;28;20172;-50
2022/01/07 06:08:15;;;;;;;15.60;10.50;;;1.60;99.90;;;;;;5034410;28;20206;-48
2022/01/07 06:10:40;;;;;;;13.73;9.60;;;1.60;99.90;;;;;;5034133;28;20176;-48
2022/01/07 06:13:06;;;;;;;14.93;10.23;;;1.60;99.90;;;;;;5033309;28;20200;-51
2022/01/07 06:15:31;;;;;;;14.73;10.70;;;1.70;99.90;;;;;;5033844;28;20204;-48
2022/01/07 06:17:59;;;;;;;21.37;14.30;;;1.60;99.90;;;;;;5034261;28;20301;-48
2022/01/07 06:20:25;;;;;;;17.83;11.37;;;1.50;99.90;;;;;;5033869;28;20696;-47
2022/01/07 06:22:51;;;;;;;17.77;11.93;;;1.60;99.90;;;;;;5034026;28;20468;-51
2022/01/07 06:25:16;;;;;;;16.97;11.83;;;1.50;99.90;;;;;;5033614;28;20191;-48
2022/01/07 06:27:42;;;;;;;20.83;12.43;;;1.40;99.90;;;;;;5034044;28;20179;-50
2022/01/07 06:30:08;;;;;;;23.70;16.20;;;1.50;99.90;;;;;;5034082;28;20234;-48
2022/01/07 06:32:34;;;;;;;18.67;12.60;;;1.40;99.90;;;;;;5033854;28;20180;-50
2022/01/07 06:35:00;;;;;;;22.73;16.00;;;1.40;99.90;;;;;;5033413;28;20838;-51
2022/01/07 06:37:25;;;;;;;18.53;12.60;;;1.40;99.90;;;;;;5033598;28;20176;-48
2022/01/07 06:39:51;;;;;;;18.63;12.70;;;1.40;99.90;;;;;;5033802;28;20693;-48
2022/01/07 06:42:16;;;;;;;20.07;13.07;;;1.40;99.90;;;;;;5033686;28;20200;-48
2022/01/07 06:44:42;;;;;;;17.67;12.63;;;1.40;99.90;;;;;;5033475;28;20192;-49
2022/01/07 06:47:08;;;;;;;19.93;14.90;;;1.40;99.90;;;;;;5033721;28;20176;-50
2022/01/07 06:49:33;;;;;;;17.97;12.40;;;1.50;99.90;;;;;;5033497;28;20713;-48
2022/01/07 06:51:59;;;;;;;16.50;12.57;;;1.60;99.90;;;;;;5033528;28;20183;-48
2022/01/07 06:54:27;;;;;;;18.10;12.30;;;1.70;99.90;;;;;;5032851;28;20219;-48
2022/01/07 06:56:53;;;;;;;20.07;13.07;;;1.80;99.90;;;;;;5033490;28;20255;-47
2022/01/07 06:59:18;;;;;;;15.13;11.07;;;1.80;99.90;;;;;;5033379;28;20506;-48
2022/01/07 07:01:47;;;;;;;16.10;11.93;;;1.70;99.90;;;;;;5033534;28;20738;-48
2022/01/07 07:04:12;;;;;;;18.67;11.23;;;1.80;99.90;;;;;;5032955;28;20761;-47
2022/01/07 07:06:38;;;;;;;17.27;12.03;;;1.90;99.90;;;;;;5033185;28;20406;-47
2022/01/07 07:09:04;;;;;;;15.87;11.03;;;1.80;99.90;;;;;;5033184;28;20176;-48
2022/01/07 07:11:30;;;;;;;18.13;11.63;;;1.80;99.90;;;;;;5033225;28;20545;-50
2022/01/07 07:13:56;;;;;;;14.90;11.37;;;1.50;99.90;;;;;;5033068;28;20204;-47
2022/01/07 07:16:21;;;;;;;16.47;11.70;;;1.40;99.90;;;;;;5032969;28;20176;-48
2022/01/07 07:18:47;;;;;;;18.73;13.03;;;1.40;99.90;;;;;;5033058;28;20180;-47
2022/01/07 07:21:13;;;;;;;18.67;11.73;;;1.40;99.90;;;;;;5032613;28;20691;-48
2022/01/07 07:23:39;;;;;;;17.57;12.57;;;1.50;99.90;;;;;;5032620;28;20423;-52
2022/01/07 07:26:04;;;;;;;17.40;12.23;;;1.50;99.90;;;;;;5032692;28;20271;-48
2022/01/07 07:28:30;;;;;;;15.00;11.80;;;1.60;99.90;;;;;;5032896;28;20254;-47
2022/01/07 07:30:59;;;;;;;15.70;11.40;;;1.80;99.90;;;;;;5032860;28;20233;-48
2022/01/07 07:38:40;;;;;;;16.90;12.37;;;1.90;99.90;;;;;;5032892;28;20259;-51
2022/01/07 07:41:10;;;;;;;17.83;12.40;;;2.00;99.90;;;;;;5031883;28;20512;-53
2022/01/07 07:43:36;;;;;;;14.30;10.97;;;2.10;99.90;;;;;;5032399;28;20505;-52
2022/01/07 07:46:02;;;;;;;15.50;10.87;;;2.10;99.90;;;;;;5032385;28;20580;-51
2022/01/07 07:48:30;;;;;;;13.70;10.50;;;2.10;99.90;;;;;;5032279;28;20175;-52
2022/01/07 07:50:55;;;;;;;14.43;10.60;;;2.00;99.90;;;;;;5032377;28;20210;-53
2022/01/07 07:53:21;;;;;;;16.10;11.87;;;2.00;99.90;;;;;;5032537;28;20692;-53
2022/01/07 07:55:53;;;;;;;14.30;10.23;;;2.10;99.90;;;;;;5031827;28;20688;-48
2022/01/07 07:58:28;;;;;;;13.23;10.57;;;2.00;99.90;;;;;;5032396;28;20179;-49
2022/01/07 08:00:53;;;;;;;19.67;17.57;;;2.00;99.90;;;;;;5032027;28;20282;-50
2022/01/07 08:03:21;;;;;;;17.40;11.43;;;2.00;99.90;;;;;;5032312;28;20511;-52
2022/01/07 08:05:47;;;;;;;12.93;9.67;;;2.00;99.90;;;;;;5031659;28;20191;-51
2022/01/07 08:08:12;;;;;;;12.73;9.70;;;2.00;99.90;;;;;;5032294;28;20180;-53
2022/01/07 08:10:45;;;;;;;14.47;10.33;;;2.00;99.90;;;;;;5032246;28;20180;-49
2022/01/07 08:18:23;;;;;;;13.57;9.33;;;2.00;99.90;;;;;;5032290;28;20186;-49
2022/01/07 08:20:50;;;;;;;11.60;9.40;;;2.20;99.90;;;;;;5031809;28;20631;-52
2022/01/07 08:23:16;;;;;;;12.67;9.63;;;2.30;99.90;;;;;;5031817;28;20210;-49
2022/01/07 08:25:42;;;;;;;25.80;17.90;;;2.40;99.90;;;;;;5031618;28;20196;-51
2022/01/07 08:28:09;;;;;;;14.63;11.10;;;2.50;99.90;;;;;;5031494;28;20545;-53
2022/01/07 08:30:48;;;;;;;13.83;10.77;;;2.60;99.90;;;;;;5031912;28;20191;-47
2022/01/07 08:35:59;;;;;;;13.50;10.03;;;2.70;99.90;;;;;;5031045;28;20186;-53
2022/01/07 08:38:25;;;;;;;13.13;9.80;;;2.80;99.90;;;;;;5013720;28;20636;-48
2022/01/07 08:40:51;;;;;;;13.87;10.37;;;2.90;99.90;;;;;;5031595;28;20222;-49
2022/01/07 08:43:16;;;;;;;13.60;10.07;;;2.90;99.90;;;;;;5031763;28;20172;-52
2022/01/07 08:45:43;;;;;;;14.20;10.50;;;3.00;99.90;;;;;;5024641;28;20197;-53
2022/01/07 08:48:08;;;;;;;16.50;10.70;;;3.10;99.90;;;;;;5022105;28;20191;-55
2022/01/07 08:50:34;;;;;;;14.97;10.20;;;3.20;99.90;;;;;;5019416;28;20177;-52
2022/01/07 08:53:01;;;;;;;12.63;9.70;;;3.20;99.90;;;;;;5011783;28;20172;-49
2022/01/07 08:55:27;;;;;;;13.70;9.93;;;3.30;99.90;;;;;;5011342;28;20295;-54
2022/01/07 08:57:52;;;;;;;14.17;10.00;;;3.30;99.90;;;;;;5011947;28;20188;-52
2022/01/07 09:00:18;;;;;;;12.53;10.17;;;3.30;99.90;;;;;;5011881;28;20196;-53
2022/01/07 09:02:43;;;;;;;14.13;9.53;;;3.40;99.90;;;;;;5011533;28;20230;-51
2022/01/07 09:05:09;;;;;;;16.13;9.80;;;3.40;99.90;;;;;;5011469;28;20677;-50
2022/01/07 09:07:35;;;;;;;13.60;9.63;;;3.40;99.90;;;;;;5014905;28;20255;-48
2022/01/07 09:10:00;;;;;;;13.27;9.47;;;3.40;99.90;;;;;;5031489;28;20175;-48
2022/01/07 09:12:26;;;;;;;15.27;10.07;;;3.40;99.90;;;;;;5022006;28;20234;-48
2022/01/07 09:14:51;;;;;;;11.97;8.97;;;3.70;99.90;;;;;;5011209;28;20196;-48
2022/01/07 09:17:17;;;;;;;12.33;9.03;;;3.10;99.90;;;;;;5011871;28;20177;-47
2022/01/07 09:19:43;;;;;;;14.63;10.03;;;3.10;99.90;;;;;;5014160;28;20168;-48
2022/01/07 09:22:08;;;;;;;12.27;9.33;;;3.10;99.90;;;;;;5014017;28;20180;-52
2022/01/07 09:24:34;;;;;;;12.37;9.87;;;3.00;99.90;;;;;;5010748;28;20191;-49
2022/01/07 09:26:59;;;;;;;14.93;10.53;;;3.00;99.90;;;;;;5011414;28;20642;-54
2022/01/07 09:29:27;;;;;;;12.37;9.60;;;3.10;99.90;;;;;;5011215;28;20252;-54
2022/01/07 09:31:53;;;;;;;19.13;12.10;;;3.10;99.90;;;;;;5011531;28;20219;-50
2022/01/07 09:34:20;;;;;;;15.40;11.73;;;2.90;99.90;;;;;;5011024;28;20611;-49
2022/01/07 09:36:45;;;;;;;12.70;9.93;;;2.70;99.90;;;;;;5011145;28;20541;-50
2022/01/07 09:39:11;;;;;;;15.17;10.67;;;2.80;99.90;;;;;;5011511;28;20183;-50
2022/01/07 09:41:37;;;;;;;12.47;9.70;;;2.90;99.90;;;;;;5011566;28;20711;-48
2022/01/07 09:44:03;;;;;;;15.73;10.67;;;2.70;99.90;;;;;;5010905;28;20184;-48
2022/01/07 09:46:29;;;;;;;13.80;11.03;;;2.70;99.90;;;;;;5012289;28;20223;-50
2022/01/07 09:48:54;;;;;;;12.90;9.63;;;2.70;99.90;;;;;;5014141;28;20172;-49
2022/01/07 09:51:22;;;;;;;15.03;10.43;;;2.80;99.90;;;;;;5012936;28;20176;-51
2022/01/07 09:53:48;;;;;;;15.33;11.10;;;2.80;99.90;;;;;;5014001;28;20204;-48
2022/01/07 09:56:13;;;;;;;15.33;11.60;;;2.80;99.90;;;;;;5014802;28;20180;-48
2022/01/07 09:58:39;;;;;;;20.63;13.27;;;2.90;99.90;;;;;;5014660;28;20248;-50
2022/01/07 10:01:09;;;;;;;16.10;11.43;;;2.90;99.90;;;;;;5014717;28;20193;-47
2022/01/07 10:03:38;;;;;;;38.13;18.73;;;2.80;99.90;;;;;;5014486;28;20215;-48
2022/01/07 10:06:22;;;;;;;17.60;12.50;;;2.70;99.90;;;;;;5014310;28;20893;-48
2022/01/07 10:09:10;;;;;;;15.40;11.97;;;2.50;99.90;;;;;;5014448;28;20204;-48
2022/01/07 10:11:36;;;;;;;19.80;14.77;;;2.40;99.90;;;;;;5014700;28;20168;-49
2022/01/07 10:14:17;;;;;;;18.43;12.87;;;2.10;99.90;;;;;;5014163;28;20193;-49
2022/01/07 10:16:54;;;;;;;15.77;12.27;;;1.90;99.90;;;;;;5014676;28;20196;-50
2022/01/07 10:19:32;;;;;;;18.87;13.20;;;1.80;99.90;;;;;;5014358;28;20222;-48
2022/01/07 10:22:07;;;;;;;18.27;12.87;;;1.90;99.90;;;;;;5014457;28;20173;-48
2022/01/07 10:24:58;;;;;;;15.67;11.87;;;2.00;99.90;;;;;;5013959;28;20199;-50
2022/01/07 10:27:35;;;;;;;15.07;11.93;;;1.90;99.90;;;;;;5008742;28;20896;-48
2022/01/07 10:30:13;;;;;;;15.90;12.37;;;1.90;99.90;;;;;;5014242;28;20646;-48
2022/01/07 10:32:39;;;;;;;13.40;10.93;;;1.80;99.90;;;;;;5056826;23;20233;-53
2022/01/07 10:35:13;;;;;;;18.67;12.70;;;1.90;99.90;;;;;;5004913;28;20165;-50
2022/01/07 10:37:46;;;;;;;16.03;12.43;;;1.80;99.90;;;;;;5013521;28;20252;-56
2022/01/07 10:40:23;;;;;;;15.77;11.80;;;1.90;99.90;;;;;;5012988;28;20214;-49
2022/01/07 10:42:51;;;;;;;16.30;12.80;;;2.10;99.90;;;;;;5000722;28;20264;-50
2022/01/07 10:45:18;;;;;;;19.13;13.17;;;2.30;99.90;;;;;;4994287;28;20575;-54
2022/01/07 10:47:49;;;;;;;17.73;12.27;;;2.40;99.90;;;;;;4993936;28;20169;-52
2022/01/07 10:50:24;;;;;;;16.17;11.47;;;2.40;99.90;;;;;;4993932;28;20260;-50
2022/01/07 10:52:51;;;;;;;17.30;12.70;;;2.10;99.90;;;;;;4993690;28;20673;-52
2022/01/07 10:55:19;;;;;;;21.53;14.30;;;2.00;99.90;;;;;;4994057;28;20220;-51
2022/01/07 10:57:47;;;;;;;17.67;12.80;;;2.00;99.90;;;;;;4993407;28;20201;-52
2022/01/07 11:00:16;;;;;;;21.43;13.53;;;2.00;99.90;;;;;;4994312;28;20272;-50
2022/01/07 11:02:41;;;;;;;18.93;13.43;;;2.00;99.90;;;;;;4993646;28;20189;-53
2022/01/07 11:05:08;;;;;;;19.17;13.83;;;1.90;99.90;;;;;;4993908;28;20232;-52
2022/01/07 11:07:35;;;;;;;22.57;14.33;;;1.90;99.90;;;;;;4969432;28;20178;-53
2022/01/07 11:10:01;;;;;;;18.77;14.60;;;2.00;99.90;;;;;;4994012;28;20177;-53
2022/01/07 11:12:29;;;;;;;18.37;12.67;;;2.00;99.90;;;;;;4993988;28;20272;-53
2022/01/07 11:14:55;;;;;;;18.40;12.57;;;2.10;99.90;;;;;;4993153;28;20181;-55
2022/01/07 11:17:21;;;;;;;15.93;11.37;;;2.20;99.90;;;;;;4993167;28;20236;-52
2022/01/07 11:19:52;;;;;;;16.67;11.83;;;2.40;99.90;;;;;;4992793;28;20634;-50
2022/01/07 11:22:19;;;;;;;16.63;11.57;;;2.40;99.90;;;;;;4993216;28;20720;-50
2022/01/07 11:24:56;;;;;;;19.47;13.03;;;2.30;99.90;;;;;;4993099;28;20176;-52
2022/01/07 11:27:27;;;;;;;17.07;12.30;;;2.20;99.90;;;;;;4993046;28;20196;-52
2022/01/07 11:30:03;;;;;;;20.67;12.73;;;2.30;99.90;;;;;;4975695;28;20174;-53
2022/01/07 11:32:32;;;;;;;20.63;12.87;;;2.30;99.90;;;;;;4993196;28;20200;-52
2022/01/07 11:35:21;;;;;;;17.93;12.40;;;2.20;99.90;;;;;;4993238;28;20575;-53
2022/01/07 11:37:57;;;;;;;19.40;12.00;;;2.20;99.90;;;;;;4993591;28;20165;-53
2022/01/07 11:40:29;;;;;;;17.23;12.27;;;2.20;99.90;;;;;;4988531;28;20193;-52
2022/01/07 11:43:20;;;;;;;19.17;12.90;;;2.20;99.90;;;;;;4992147;28;20193;-53
2022/01/07 11:45:46;;;;;;;14.67;10.60;;;2.30;99.90;;;;;;4992910;28;20199;-50
2022/01/07 11:48:22;;;;;;;18.37;11.83;;;2.30;99.90;;;;;;4993259;28;20220;-52
2022/01/07 11:51:10;;;;;;;15.07;10.73;;;2.20;99.90;;;;;;4993094;28;20169;-52
2022/01/07 11:53:38;;;;;;;16.00;11.07;;;2.30;99.90;;;;;;4992908;28;20201;-49
2022/01/07 11:56:05;;;;;;;14.17;9.93;;;2.30;99.90;;;;;;4992740;28;20687;-51
2022/01/07 11:58:55;;;;;;;15.73;10.87;;;2.20;99.90;;;;;;4993229;28;20173;-51
2022/01/07 12:01:34;;;;;;;14.57;10.20;;;2.10;99.90;;;;;;4992706;28;20205;-49
2022/01/07 12:04:26;;;;;;;13.87;10.30;;;2.20;99.90;;;;;;4993002;28;20169;-51
2022/01/07 12:06:53;;;;;;;12.33;9.00;;;2.30;99.90;;;;;;4992808;28;20259;-50
2022/01/07 12:09:27;;;;;;;13.87;9.97;;;2.30;99.90;;;;;;4993052;28;20217;-56
2022/01/07 12:12:02;;;;;;;13.30;9.20;;;2.30;99.90;;;;;;4992843;28;20197;-50
2022/01/07 12:14:32;;;;;;;11.03;8.37;;;2.30;99.90;;;;;;4992824;28;20687;-53
2022/01/07 12:16:59;;;;;;;10.63;7.87;;;2.40;99.90;;;;;;4992844;28;20732;-56
2022/01/07 12:19:28;;;;;;;11.77;8.63;;;2.40;99.90;;;;;;4992704;28;20192;-51
2022/01/07 12:21:58;;;;;;;12.43;8.77;;;2.60;99.90;;;;;;4992517;28;20209;-53
2022/01/07 12:24:26;;;;;;;10.07;7.87;;;2.60;99.90;;;;;;4992371;28;20184;-54
2022/01/07 12:27:05;;;;;;;12.33;7.93;;;2.70;99.90;;;;;;4992807;28;20662;-53
2022/01/07 12:29:33;;;;;;;10.57;8.37;;;2.70;99.90;;;;;;4992445;28;20173;-50
2022/01/07 12:32:00;;;;;;;10.93;8.10;;;2.70;99.90;;;;;;4992508;28;20209;-55
2022/01/07 12:34:34;;;;;;;11.60;7.80;;;2.60;99.90;;;;;;4992120;28;20166;-55
2022/01/07 12:37:09;;;;;;;10.07;7.53;;;2.60;99.90;;;;;;4992287;28;20171;-51
2022/01/07 12:39:40;;;;;;;9.47;7.57;;;2.70;99.90;;;;;;4992323;28;20180;-53
2022/01/07 12:42:07;;;;;;;8.70;7.13;;;2.80;99.90;;;;;;4992475;28;20228;-50
2022/01/07 12:44:38;;;;;;;9.97;8.07;;;3.00;99.90;;;;;;4992021;28;20165;-48
2022/01/07 12:47:07;;;;;;;7.87;6.07;;;3.50;99.90;;;;;;4992471;28;20169;-51
2022/01/07 12:49:40;;;;;;;6.97;6.03;;;4.20;99.90;;;;;;4987980;28;20212;-52
2022/01/07 12:52:18;;;;;;;9.33;6.27;;;4.70;99.90;;;;;;4992370;28;20272;-50
2022/01/07 12:55:03;;;;;;;9.17;6.33;;;4.90;99.90;;;;;;4991906;28;20169;-51
2022/01/07 12:57:42;;;;;;;6.90;5.87;;;5.00;99.90;;;;;;4992270;28;20192;-50